Time;durP1;ratioP1;P1;durP2;ratioP2;P2;SDS_P1;SDS_P2;PMS_P1;PMS_P2;Temp;Humidity;BMP_temperature;BMP_pressure;BME280_temperature;BME280_humidity;BME280_pressure;Samples;Min_cycle;Max_cycle;Signal;HPM_P1;HPM_P2
2021/08/18 00:02:20;;;;;;;;;;;12.60;99.90;;;11.63;100.00;95937.50;10511729;28;2254;-80
2021/08/18 00:07:23;;;;;;;;;;;12.60;99.90;;;11.81;100.00;95942.31;10525227;28;2478;-80
2021/08/18 00:12:26;;;;;;;;;;;12.60;99.90;;;11.94;100.00;95937.41;10500820;28;2110;-82
2021/08/18 00:17:28;;;;;;;;;;;12.70;99.90;;;12.07;100.00;95934.09;10503664;28;2147;-82
2021/08/18 00:22:31;;;;;;;;;;;12.90;99.90;;;12.01;100.00;95927.91;10511218;28;2012;-83
2021/08/18 00:27:34;;;;;;;;;;;12.90;99.90;;;11.95;100.00;95929.03;10504984;28;1806;-81
2021/08/18 00:32:37;;;;;;;;;;;12.90;99.90;;;12.08;100.00;95928.41;10484020;28;2661;-80
2021/08/18 00:37:39;;;;;;;;;;;12.90;99.90;;;12.02;100.00;95932.22;10494081;28;2562;-81
2021/08/18 00:42:42;;;;;;;;;;;13.00;99.90;;;12.11;100.00;95929.75;10518440;28;2060;-80
2021/08/18 00:47:45;;;;;;;;;;;13.00;99.90;;;12.16;100.00;95924.34;10512598;28;2553;-83
2021/08/18 00:52:48;;;;;;;;;;;13.10;99.90;;;12.15;100.00;95928.09;10508501;28;2507;-78
2021/08/18 00:57:51;;;;;;;;;;;13.10;99.90;;;12.46;100.00;95931.38;10503086;28;2525;-81
2021/08/18 01:02:54;;;;;;;;;;;13.20;99.90;;;12.14;100.00;95923.78;10514155;28;1922;-82
2021/08/18 01:07:58;;;;;;;;;;;13.20;99.90;;;12.15;100.00;95920.00;10516484;28;2616;-79
2021/08/18 01:13:00;;;;;;;;;;;13.10;99.90;;;12.16;100.00;95911.66;10497461;28;2864;-78
2021/08/18 01:18:03;;;;;;;;;;;13.10;99.90;;;12.03;100.00;95919.56;10518821;28;2475;-78
2021/08/18 01:23:06;;;;;;;;;;;13.00;99.90;;;12.05;100.00;95912.81;10499396;28;2408;-80
2021/08/18 01:28:09;;;;;;;;;;;13.00;99.90;;;12.04;100.00;95911.22;10527770;28;2507;-83
2021/08/18 01:33:12;;;;;;;;;;;13.00;99.90;;;12.12;100.00;95909.81;10526176;28;2110;-78
2021/08/18 01:38:17;;;;;;;;;;;13.00;99.90;;;12.11;100.00;95905.50;10525926;28;2071;-77
2021/08/18 01:43:20;;;;;;;;;;;13.10;99.90;;;12.15;100.00;95911.94;10493233;28;2628;-79
2021/08/18 01:48:23;;;;;;;;;;;13.00;99.90;;;12.08;100.00;95914.13;10483873;28;2117;-77
2021/08/18 01:53:26;;;;;;;;;;;13.00;99.90;;;12.38;100.00;95910.44;10507706;28;2603;-80
2021/08/18 01:58:28;;;;;;;;;;;13.10;99.90;;;12.43;100.00;95911.19;10512218;28;2502;-80
2021/08/18 02:03:31;;;;;;;;;;;13.30;99.90;;;12.40;100.00;95900.97;10506147;28;2532;-79
2021/08/18 02:08:34;;;;;;;;;;;13.30;99.90;;;12.33;100.00;95896.97;10514269;28;2444;-81
2021/08/18 02:13:37;;;;;;;;;;;13.20;99.90;;;12.11;100.00;95900.13;10526171;28;1969;-81
2021/08/18 02:18:40;;;;;;;;;;;13.20;99.90;;;12.08;100.00;95896.06;10535489;28;2430;-79
2021/08/18 02:23:43;;;;;;;;;;;13.00;99.90;;;12.08;100.00;95897.97;10516107;28;2054;-79
2021/08/18 02:28:46;;;;;;;;;;;13.10;99.90;;;12.14;100.00;95889.56;10501734;28;2535;-81
2021/08/18 02:33:48;;;;;;;;;;;13.10;99.90;;;12.09;100.00;95888.81;10514655;28;2505;-79
2021/08/18 02:38:51;;;;;;;;;;;13.10;99.90;;;12.14;100.00;95884.19;10521535;28;2481;-80
2021/08/18 02:43:54;;;;;;;;;;;13.10;99.90;;;12.34;100.00;95883.25;10510147;28;1998;-80
2021/08/18 02:48:57;;;;;;;;;;;13.20;99.90;;;12.23;100.00;95892.50;10528004;28;1859;-78
2021/08/18 02:54:00;;;;;;;;;;;13.20;99.90;;;12.26;100.00;95885.72;10515671;28;2434;-78
2021/08/18 02:59:02;;;;;;;;;;;13.20;99.90;;;12.37;100.00;95888.06;10531589;28;2515;-78
2021/08/18 03:04:05;;;;;;;;;;;13.30;99.90;;;12.33;100.00;95884.31;10522149;28;1977;-82
2021/08/18 03:09:08;;;;;;;;;;;13.30;99.90;;;12.24;100.00;95882.50;10512273;28;2529;-77
2021/08/18 03:14:11;;;;;;;;;;;13.20;99.90;;;12.24;100.00;95879.81;10508714;28;2584;-78
2021/08/18 03:19:14;;;;;;;;;;;13.20;99.90;;;12.52;100.00;95878.22;10518108;28;2504;-82
2021/08/18 03:24:16;;;;;;;;;;;13.30;99.90;;;12.57;100.00;95870.09;10532527;28;2487;-79
2021/08/18 03:29:19;;;;;;;;;;;13.50;99.90;;;12.60;100.00;95874.94;10522484;28;2132;-78
2021/08/18 03:34:22;;;;;;;;;;;13.50;99.90;;;12.61;100.00;95879.25;10520764;28;1883;-78
2021/08/18 03:39:25;;;;;;;;;;;13.50;99.90;;;12.69;100.00;95878.63;10509609;28;2102;-77
2021/08/18 03:44:27;;;;;;;;;;;13.60;99.90;;;12.62;100.00;95873.56;10520301;28;2519;-79
2021/08/18 03:49:30;;;;;;;;;;;13.50;99.90;;;12.49;100.00;95868.81;10507227;28;2574;-80
2021/08/18 03:54:33;;;;;;;;;;;13.50;99.90;;;12.47;100.00;95879.09;10494548;28;2663;-79
2021/08/18 03:59:36;;;;;;;;;;;13.50;99.90;;;12.40;100.00;95892.88;10526513;28;2519;-77
2021/08/18 04:04:38;;;;;;;;;;;13.40;99.90;;;12.49;100.00;95894.97;10538021;28;2479;-80
2021/08/18 04:09:41;;;;;;;;;;;13.40;99.90;;;12.55;100.00;95900.06;10508107;28;2530;-80
2021/08/18 04:14:44;;;;;;;;;;;13.50;99.90;;;12.57;100.00;95905.16;10514524;28;1453;-80
2021/08/18 04:19:46;;;;;;;;;;;13.50;99.90;;;12.68;100.00;95912.88;10518391;28;1983;-79
2021/08/18 04:24:49;;;;;;;;;;;13.60;99.90;;;12.73;100.00;95919.31;10527690;28;2590;-80
2021/08/18 04:29:52;;;;;;;;;;;13.60;99.90;;;12.71;100.00;95920.38;10525501;28;2420;-79
2021/08/18 04:34:55;;;;;;;;;;;13.60;99.90;;;12.80;100.00;95917.91;10532218;28;2242;-80
2021/08/18 04:39:58;;;;;;;;;;;13.70;99.90;;;12.83;100.00;95922.72;10510292;28;2471;-80
2021/08/18 04:45:00;;;;;;;;;;;13.70;99.90;;;12.87;100.00;95921.06;10526960;28;2609;-77
2021/08/18 04:50:03;;;;;;;;;;;13.70;99.90;;;12.85;100.00;95930.53;10529183;28;1902;-79
2021/08/18 04:55:06;;;;;;;;;;;13.80;99.90;;;13.21;100.00;95922.91;10518935;28;2527;-81
2021/08/18 05:00:09;;;;;;;;;;;13.90;99.90;;;13.00;100.00;95925.00;10502027;28;1978;-80
2021/08/18 05:05:12;;;;;;;;;;;14.00;99.90;;;13.03;100.00;95920.91;10516961;28;2550;-80
2021/08/18 05:10:14;;;;;;;;;;;13.90;99.90;;;13.09;100.00;95920.56;10498542;28;2397;-77
2021/08/18 05:15:17;;;;;;;;;;;14.00;99.90;;;13.15;100.00;95924.84;10492093;28;2444;-79
2021/08/18 05:20:20;;;;;;;;;;;14.00;99.90;;;13.24;100.00;95928.56;10518882;28;2646;-79
2021/08/18 05:25:23;;;;;;;;;;;14.10;99.90;;;13.38;100.00;95920.56;10503656;28;2002;-83
2021/08/18 05:30:26;;;;;;;;;;;14.20;99.90;;;13.45;99.27;95929.13;10511886;28;2167;-80
2021/08/18 05:35:29;;;;;;;;;;;14.30;99.90;;;13.48;98.81;95925.03;10529960;28;2543;-80
2021/08/18 05:40:31;;;;;;;;;;;14.30;99.90;;;13.74;98.48;95925.53;10516100;28;2392;-81
2021/08/18 05:45:34;;;;;;;;;;;14.50;99.90;;;14.48;92.99;95918.56;10503723;28;1869;-81
2021/08/18 05:50:37;;;;;;;;;;;14.90;99.90;;;14.70;90.41;95930.69;10523954;28;2491;-81
2021/08/18 05:55:40;;;;;;;;;;;15.30;99.90;;;14.75;89.35;95923.28;10519864;28;1886;-81
2021/08/18 06:00:42;;;;;;;;;;;15.50;99.90;;;14.85;88.95;95925.00;10490645;28;1932;-82
2021/08/18 06:05:45;;;;;;;;;;;15.60;99.90;;;14.99;89.38;95928.56;10519984;28;2562;-81
2021/08/18 06:10:48;;;;;;;;;;;15.70;99.90;;;15.28;86.19;95930.22;10503821;28;1967;-79
2021/08/18 06:15:51;;;;;;;;;;;15.90;99.90;;;15.43;85.42;95927.22;10522215;28;2579;-82
2021/08/18 06:20:54;;;;;;;;;;;16.10;99.90;;;15.60;85.35;95927.41;10494537;28;2522;-79
2021/08/18 06:25:57;;;;;;;;;;;16.20;99.90;;;15.86;82.92;95932.34;10517252;28;1775;-78
2021/08/18 06:30:59;;;;;;;;;;;16.40;99.90;;;15.98;81.61;95934.53;10502460;28;2604;-80
2021/08/18 06:36:02;;;;;;;;;;;16.60;99.90;;;15.89;82.14;95923.59;10515195;28;2095;-81
2021/08/18 06:41:05;;;;;;;;;;;16.60;99.90;;;16.13;81.32;95929.59;10528143;28;2566;-80
2021/08/18 06:46:08;;;;;;;;;;;16.80;99.90;;;16.32;79.91;95932.16;10514614;28;2424;-79
2021/08/18 06:51:12;;;;;;;;;;;16.90;99.90;;;16.56;79.72;95928.34;10520014;28;2534;-80
2021/08/18 06:56:14;;;;;;;;;;;17.10;99.90;;;16.63;81.21;95924.09;10536354;28;2055;-78
2021/08/18 07:01:17;;;;;;;;;;;17.30;99.90;;;17.01;77.31;95926.47;10512841;28;1890;-81
2021/08/18 07:06:20;;;;;;;;;;;17.40;99.90;;;16.89;76.42;95934.38;10515083;28;2555;-79
2021/08/18 07:11:23;;;;;;;;;;;17.60;99.90;;;17.09;75.28;95922.97;10531038;28;1791;-80
2021/08/18 07:16:26;;;;;;;;;;;17.70;99.90;;;17.41;73.94;95921.06;10510945;28;2425;-81
2021/08/18 07:21:29;;;;;;;;;;;17.80;99.90;;;17.77;72.47;95919.00;10515078;28;2566;-81
2021/08/18 07:26:32;;;;;;;;;;;18.00;99.90;;;17.47;71.91;95922.53;10531013;28;1914;-77
2021/08/18 07:31:35;;;;;;;;;;;18.20;99.90;;;17.73;72.10;95926.16;10505303;28;2792;-78
2021/08/18 07:36:37;;;;;;;;;;;18.10;99.90;;;18.14;68.84;95925.00;10500718;28;2507;-80
2021/08/18 07:41:40;;;;;;;;;;;18.60;99.90;;;18.28;70.14;95924.84;10518070;28;2032;-78
2021/08/18 07:46:44;;;;;;;;;;;18.90;99.90;;;17.83;69.36;95930.53;10518783;28;2558;-80
2021/08/18 07:51:47;;;;;;;;;;;18.70;99.90;;;17.44;70.80;95925.88;10520970;28;2550;-79
2021/08/18 07:56:49;;;;;;;;;;;18.40;99.90;;;17.39;71.07;95926.00;10507014;28;2132;-81
2021/08/18 08:01:52;;;;;;;;;;;18.20;99.90;;;18.07;68.30;95930.91;10528738;28;2089;-80
2021/08/18 08:06:56;;;;;;;;;;;18.50;99.90;;;18.05;66.51;95933.13;10487969;28;2487;-78
2021/08/18 08:11:58;;;;;;;;;;;18.60;99.90;;;18.50;66.33;95926.59;10510471;28;2575;-77
2021/08/18 08:17:01;;;;;;;;;;;18.80;99.90;;;18.51;66.75;95929.03;10492125;28;2681;-80
2021/08/18 08:22:04;;;;;;;;;;;19.00;99.90;;;18.64;65.40;95932.72;10494914;28;2511;-79
2021/08/18 08:27:06;;;;;;;;;;;19.10;99.90;;;19.11;63.43;95932.81;10505539;28;2193;-80
2021/08/18 08:32:10;;;;;;;;;;;19.50;99.90;;;18.65;63.69;95937.03;10495649;28;2439;-79
2021/08/18 08:37:12;;;;;;;;;;;19.40;99.90;;;19.17;63.13;95934.25;10499467;28;2569;-78
2021/08/18 08:42:15;;;;;;;;;;;19.60;99.90;;;19.43;59.99;95931.44;10496033;28;2471;-78
2021/08/18 08:47:18;;;;;;;;;;;20.00;99.90;;;18.83;62.14;95946.81;10507006;28;2428;-79
2021/08/18 08:52:21;;;;;;;;;;;19.60;99.90;;;18.58;62.26;95934.00;10505036;28;2538;-79
2021/08/18 08:57:23;;;;;;;;;;;19.40;99.90;;;17.88;64.85;95938.53;10493993;28;2436;-79
2021/08/18 09:02:27;;;;;;;;;;;18.90;99.90;;;17.89;65.86;95939.34;10513051;28;2558;-81
2021/08/18 09:07:30;;;;;;;;;;;18.60;99.90;;;18.69;63.85;95934.47;10490242;28;2588;-82
2021/08/18 09:12:34;;;;;;;;;;;18.90;99.90;;;18.72;63.55;95942.03;10504011;28;1557;-81
2021/08/18 09:17:37;;;;;;;;;;;19.10;99.90;;;18.52;65.10;95946.16;10519655;28;2508;-81
2021/08/18 09:22:40;;;;;;;;;;;19.30;99.90;;;18.50;63.72;95942.94;10514364;28;2495;-80
2021/08/18 09:27:43;;;;;;;;;;;19.20;99.90;;;18.28;65.41;95941.97;10488606;28;2458;-82
2021/08/18 09:32:45;;;;;;;;;;;19.00;99.90;;;17.89;64.85;95945.56;10491129;28;1972;-81
2021/08/18 09:37:48;;;;;;;;;;;18.80;99.90;;;17.87;66.26;95938.84;10508743;28;2553;-81
2021/08/18 09:42:51;;;;;;;;;;;18.70;99.90;;;18.10;66.62;95943.84;10506860;28;2048;-79
2021/08/18 09:47:55;;;;;;;;;;;18.70;99.90;;;18.09;64.95;95941.47;10485884;28;2467;-81
2021/08/18 09:52:58;;;;;;;;;;;18.60;99.90;;;18.98;62.10;95933.81;10507653;28;2609;-79
2021/08/18 09:58:00;;;;;;;;;;;19.00;99.90;;;19.79;59.64;95925.56;10495432;28;2492;-79
2021/08/18 10:03:03;;;;;;;;;;;19.70;99.90;;;20.31;56.49;95925.25;10502345;28;2513;-81
2021/08/18 10:08:07;;;;;;;;;;;20.30;99.90;;;19.64;58.30;95926.09;10507959;28;2538;-80
2021/08/18 10:13:10;;;;;;;;;;;20.30;99.90;;;19.37;59.19;95921.84;10515367;28;2484;-79
2021/08/18 10:18:13;;;;;;;;;;;19.90;99.90;;;19.83;58.80;95920.22;10499371;28;2539;-79
2021/08/18 10:23:16;;;;;;;;;;;20.20;99.90;;;20.23;59.48;95923.34;10495465;28;2415;-80
2021/08/18 10:28:19;;;;;;;;;;;20.60;99.90;;;20.06;57.74;95921.56;10512215;28;2487;-80
2021/08/18 10:33:21;;;;;;;;;;;20.80;99.90;;;19.28;60.75;95930.06;10514764;28;2506;-81
2021/08/18 10:38:24;;;;;;;;;;;20.30;99.90;;;19.00;61.65;95915.22;10501013;28;2539;-81
2021/08/18 10:43:27;;;;;;;;;;;19.90;99.90;;;19.05;61.34;95915.06;10516188;28;2447;-81
2021/08/18 10:48:29;;;;;;;;;;;19.80;99.90;;;19.77;59.86;95908.72;10499548;28;2573;-80
2021/08/18 10:53:32;;;;;;;;;;;20.10;99.90;;;19.70;58.55;95906.50;10522279;28;2491;-80
2021/08/18 10:58:35;;;;;;;;;;;20.20;99.90;;;20.23;57.63;95901.53;10520742;28;2499;-79
2021/08/18 11:03:39;;;;;;;;;;;20.50;99.90;;;21.17;55.46;95898.31;10515506;28;2525;-82
2021/08/18 11:08:43;;;;;;;;;;;21.20;99.90;;;21.34;52.80;95902.81;10526913;28;2036;-79
2021/08/18 11:13:46;;;;;;;;;;;21.70;99.90;;;20.92;54.58;95905.63;10504363;28;2781;-77
2021/08/18 11:18:49;;;;;;;;;;;21.70;99.90;;;20.45;55.58;95903.97;10494529;28;2514;-80
2021/08/18 11:23:52;;;;;;;;;;;21.30;99.90;;;20.28;58.24;95898.59;10519731;28;1976;-78
2021/08/18 11:28:55;;;;;;;;;;;21.10;99.90;;;20.71;55.45;95887.34;10504137;28;2534;-78
2021/08/18 11:33:58;;;;;;;;;;;21.10;99.90;;;20.45;54.49;95900.44;10507700;28;2531;-80
2021/08/18 11:39:00;;;;;;;;;;;21.30;99.90;;;20.05;56.63;95891.88;10509857;28;2876;-79
2021/08/18 11:44:03;;;;;;;;;;;20.80;99.90;;;20.74;56.89;95888.59;10492681;28;2257;-78
2021/08/18 11:49:06;;;;;;;;;;;21.10;99.90;;;20.40;56.12;95893.22;10506158;28;2554;-80
2021/08/18 11:54:09;;;;;;;;;;;21.20;99.90;;;20.48;56.66;95889.63;10487430;28;2889;-80
2021/08/18 11:59:12;;;;;;;;;;;21.10;99.90;;;20.96;55.91;95890.19;10485790;28;2644;-82
2021/08/18 12:04:15;;;;;;;;;;;21.30;99.90;;;20.27;56.38;95886.09;10500122;28;2539;-82
2021/08/18 12:09:18;;;;;;;;;;;21.30;99.90;;;20.67;55.75;95882.88;10503602;28;2518;-82
2021/08/18 12:14:22;;;;;;;;;;;21.20;99.90;;;21.43;53.40;95879.69;10500187;28;2376;-81
2021/08/18 12:19:25;;;;;;;;;;;21.60;99.90;;;22.60;49.42;95871.59;10501628;28;2530;-83
2021/08/18 12:24:28;;;;;;;;;;;22.50;99.90;;;22.33;50.46;95866.88;10504121;28;2553;-81
2021/08/18 12:29:31;;;;;;;;;;;23.00;99.90;;;22.01;51.27;95863.97;10484451;28;2573;-80
2021/08/18 12:34:34;;;;;;;;;;;22.80;99.90;;;20.98;52.89;95855.09;10484691;28;2436;-82
2021/08/18 12:39:39;;;;;;;;;;;22.30;99.90;;;20.31;56.19;95857.00;10492478;28;2506;-81
2021/08/18 12:44:42;;;;;;;;;;;21.40;99.90;;;20.27;55.44;95861.53;10500329;28;2475;-82
2021/08/18 12:49:46;;;;;;;;;;;21.10;99.90;;;20.41;56.41;95856.56;10502438;28;2483;-83
2021/08/18 12:54:49;;;;;;;;;;;21.00;99.90;;;20.76;54.13;95850.84;10509743;28;2423;-83
2021/08/18 12:59:51;;;;;;;;;;;21.30;99.90;;;20.75;55.08;95850.03;10507415;28;2510;-82
2021/08/18 13:04:54;;;;;;;;;;;21.40;99.90;;;20.67;54.76;95852.84;10498097;28;2559;-82
2021/08/18 13:09:57;;;;;;;;;;;21.40;99.90;;;20.72;54.33;95844.44;10490510;28;2469;-83
2021/08/18 13:15:00;;;;;;;;;;;21.50;99.90;;;20.36;55.84;95843.16;10480622;28;2157;-82
2021/08/18 13:20:03;;;;;;;;;;;21.30;99.90;;;19.66;58.76;95844.78;10517757;28;2650;-83
2021/08/18 13:25:07;;;;;;;;;;;20.70;99.90;;;19.80;58.59;95839.09;10494924;28;2408;-82
2021/08/18 13:30:10;;;;;;;;;;;20.40;99.90;;;20.21;57.77;95836.34;10516334;28;2535;-83
2021/08/18 13:35:16;;;;;;;;;;;20.70;99.90;;;20.49;56.94;95824.94;10486436;28;2412;-84
2021/08/18 13:40:19;;;;;;;;;;;20.90;99.90;;;21.44;52.89;95818.41;10510465;28;2275;-83
2021/08/18 13:45:22;;;;;;;;;;;21.50;99.90;;;21.48;53.68;95815.78;10503707;28;2355;-81
2021/08/18 13:50:27;;;;;;;;;;;22.00;99.90;;;21.08;54.81;95812.88;10501487;28;2566;-81
2021/08/18 13:55:30;;;;;;;;;;;21.90;99.90;;;20.31;57.45;95807.88;10513929;28;1751;-82
2021/08/18 14:00:33;;;;;;;;;;;21.40;99.90;;;19.58;59.01;95810.16;10506960;28;2460;-85
2021/08/18 14:05:36;;;;;;;;;;;20.80;99.90;;;20.01;57.25;95809.06;10522968;28;2181;-83
2021/08/18 14:10:39;;;;;;;;;;;20.70;99.90;;;20.88;55.32;95812.63;10508232;28;1803;-86
2021/08/18 14:15:41;;;;;;;;;;;21.00;99.90;;;21.03;54.00;95816.63;10499405;28;2488;-81
2021/08/18 14:20:44;;;;;;;;;;;21.50;99.90;;;21.38;52.76;95817.06;10499738;28;2499;-82
2021/08/18 14:25:47;;;;;;;;;;;21.70;99.90;;;21.67;51.75;95804.25;10510574;28;1913;-82
2021/08/18 14:30:50;;;;;;;;;;;22.10;99.90;;;21.98;49.40;95815.38;10514829;28;2450;-82
2021/08/18 14:35:53;;;;;;;;;;;22.40;99.90;;;21.67;50.54;95815.19;10506517;28;2061;-81
2021/08/18 14:40:56;;;;;;;;;;;22.30;99.90;;;21.66;51.75;95808.16;10518774;28;2373;-81
2021/08/18 14:45:58;;;;;;;;;;;22.30;99.90;;;21.54;50.71;95808.94;10500736;28;1992;-81
2021/08/18 14:51:01;;;;;;;;;;;22.20;99.90;;;21.19;51.45;95808.59;10526726;28;2503;-82
2021/08/18 14:56:04;;;;;;;;;;;22.00;99.90;;;21.22;51.58;95807.88;10481099;28;2381;-82
2021/08/18 15:01:07;;;;;;;;;;;21.80;99.90;;;21.65;50.53;95809.28;10488596;28;2127;-84
2021/08/18 15:06:10;;;;;;;;;;;22.00;99.90;;;21.31;50.71;95808.59;10504351;28;2483;-84
2021/08/18 15:11:13;;;;;;;;;;;22.00;99.90;;;21.14;50.84;95806.06;10514799;28;2526;-85
2021/08/18 15:16:15;;;;;;;;;;;22.00;99.90;;;21.27;50.58;95799.47;10509090;28;2456;-84
2021/08/18 15:21:18;;;;;;;;;;;21.80;99.90;;;21.34;51.88;95802.47;10524321;28;2267;-83
2021/08/18 15:26:21;;;;;;;;;;;21.90;99.90;;;21.78;50.43;95802.66;10511846;28;2534;-84
2021/08/18 15:31:24;;;;;;;;;;;22.20;99.90;;;21.97;49.62;95805.59;10528692;28;2129;-83
2021/08/18 15:36:27;;;;;;;;;;;22.50;99.90;;;22.02;49.85;95799.06;10507711;28;2169;-82
2021/08/18 15:41:29;;;;;;;;;;;22.70;99.90;;;21.88;50.55;95802.16;10489455;28;2241;-81
2021/08/18 15:46:32;;;;;;;;;;;22.60;99.90;;;21.28;52.57;95784.66;10500065;28;2499;-79
2021/08/18 15:51:35;;;;;;;;;;;22.50;99.90;;;19.83;55.69;95795.56;10485671;28;2519;-79
2021/08/18 15:56:38;;;;;;;;;;;21.60;99.90;;;19.90;56.40;95778.66;10516044;28;1977;-81
2021/08/18 16:01:41;;;;;;;;;;;21.10;99.90;;;19.73;55.82;95779.59;10492421;28;2470;-82
2021/08/18 16:06:44;;;;;;;;;;;20.90;99.90;;;19.75;56.02;95774.59;10516817;28;2537;-82
2021/08/18 16:11:47;;;;;;;;;;;20.80;99.90;;;19.92;55.10;95779.94;10525012;28;1847;-81
2021/08/18 16:16:50;;;;;;;;;;;20.80;99.90;;;20.41;54.66;95769.22;10506017;28;2519;-84
2021/08/18 16:21:53;;;;;;;;;;;21.00;99.90;;;20.52;54.10;95769.63;10543443;28;1502;-80
2021/08/18 16:26:55;;;;;;;;;;;21.20;99.90;;;20.22;54.52;95766.19;10534102;28;2508;-82
2021/08/18 16:31:58;;;;;;;;;;;21.20;99.90;;;20.07;55.95;95758.63;10523130;28;2547;-80
2021/08/18 16:37:01;;;;;;;;;;;21.00;99.90;;;20.03;55.49;95758.50;10525956;28;2605;-80
2021/08/18 16:42:04;;;;;;;;;;;20.90;99.90;;;19.48;57.32;95751.34;10505537;28;2304;-81
2021/08/18 16:47:07;;;;;;;;;;;20.70;99.90;;;19.43;57.96;95755.06;10480791;28;2447;-81
2021/08/18 16:52:09;;;;;;;;;;;20.50;99.90;;;19.42;58.72;95747.22;10499596;28;2131;-80
2021/08/18 16:57:12;;;;;;;;;;;20.40;99.90;;;19.38;59.53;95733.44;10493295;28;2097;-79
2021/08/18 17:02:15;;;;;;;;;;;20.40;99.90;;;19.31;59.29;95741.34;10500815;28;2430;-82
2021/08/18 17:07:19;;;;;;;;;;;20.30;99.90;;;19.14;59.35;95730.53;10507669;28;2424;-81
2021/08/18 17:12:21;;;;;;;;;;;20.20;99.90;;;19.09;59.31;95733.47;10494785;28;2522;-80
2021/08/18 17:17:24;;;;;;;;;;;20.10;99.90;;;18.83;60.63;95728.13;10488106;28;1870;-80
2021/08/18 17:22:27;;;;;;;;;;;20.00;99.90;;;18.63;60.90;95729.63;10507294;28;2483;-80
2021/08/18 17:27:30;;;;;;;;;;;19.80;99.90;;;18.50;62.74;95736.88;10507952;28;2111;-82
2021/08/18 17:32:32;;;;;;;;;;;19.60;99.90;;;18.32;62.91;95741.56;10509649;28;2709;-79
2021/08/18 17:37:35;;;;;;;;;;;19.50;99.90;;;18.13;63.43;95738.38;10501905;28;2463;-82
2021/08/18 17:42:38;;;;;;;;;;;19.30;99.90;;;18.00;64.56;95739.34;10504034;28;2480;-81
2021/08/18 17:47:41;;;;;;;;;;;19.20;99.90;;;17.82;65.75;95739.38;10512025;28;2158;-81
2021/08/18 17:52:43;;;;;;;;;;;19.00;99.90;;;17.69;66.06;95756.63;10522316;28;2412;-81
2021/08/18 17:57:46;;;;;;;;;;;18.90;99.90;;;17.60;66.33;95750.38;10484169;28;2326;-81
2021/08/18 18:02:50;;;;;;;;;;;18.80;99.90;;;17.39;67.79;95754.84;10475871;28;2576;-80
2021/08/18 18:07:53;;;;;;;;;;;18.70;99.90;;;17.23;69.32;95755.25;10506507;28;2130;-83
2021/08/18 18:12:59;;;;;;;;;;;18.50;99.90;;;17.07;70.56;95756.03;10500436;28;2183;-84
2021/08/18 18:18:04;;;;;;;;;;;18.30;99.90;;;16.88;72.24;95764.44;10479466;28;2454;-83
2021/08/18 18:23:07;;;;;;;;;;;18.20;99.90;;;16.73;72.93;95760.19;10481934;28;2440;-82
2021/08/18 18:28:11;;;;;;;;;;;18.00;99.90;;;16.59;74.54;95768.41;10499089;28;2207;-83
2021/08/18 18:33:13;;;;;;;;;;;17.90;99.90;;;16.47;75.27;95771.69;10501856;28;2693;-81
2021/08/18 18:38:16;;;;;;;;;;;17.80;99.90;;;16.33;76.54;95771.00;10481595;28;2364;-82
2021/08/18 18:43:19;;;;;;;;;;;17.70;99.90;;;16.16;78.44;95774.41;10505036;28;1970;-82
2021/08/18 18:48:22;;;;;;;;;;;17.50;99.90;;;16.02;79.77;95772.84;10485243;28;2608;-84
2021/08/18 18:53:24;;;;;;;;;;;17.40;99.90;;;15.94;79.89;95775.19;10508129;28;2439;-83
2021/08/18 18:58:27;;;;;;;;;;;17.20;99.90;;;15.89;80.01;95774.50;10503309;28;2456;-82
2021/08/18 19:03:33;;;;;;;;;;;17.20;99.90;;;15.83;80.84;95786.56;10519200;28;2311;-84
2021/08/18 19:08:36;;;;;;;;;;;17.10;99.90;;;15.78;81.14;95781.28;10524394;28;2736;-80
2021/08/18 19:13:39;;;;;;;;;;;17.10;99.90;;;15.70;81.75;95784.72;10482946;28;2217;-82
2021/08/18 19:18:42;;;;;;;;;;;17.00;99.90;;;15.72;82.41;95787.94;10481058;28;2321;-80
2021/08/18 19:23:45;;;;;;;;;;;16.90;99.90;;;15.83;82.44;95794.72;10499824;28;2340;-80
2021/08/18 19:28:47;;;;;;;;;;;16.90;99.90;;;15.84;82.09;95789.00;10502867;28;2367;-79
2021/08/18 19:33:50;;;;;;;;;;;16.90;99.90;;;15.89;82.90;95788.84;10492532;28;2475;-82
2021/08/18 19:38:53;;;;;;;;;;;16.90;99.90;;;15.91;83.18;95783.94;10508271;28;2337;-81
2021/08/18 19:43:56;;;;;;;;;;;16.90;99.90;;;16.03;82.54;95788.84;10510422;28;1902;-81
2021/08/18 19:48:58;;;;;;;;;;;17.00;99.90;;;16.07;81.98;95792.50;10514578;28;2343;-80
2021/08/18 19:54:01;;;;;;;;;;;17.00;99.90;;;16.12;82.01;95788.88;10495168;28;2348;-82
2021/08/18 19:59:04;;;;;;;;;;;17.00;99.90;;;16.18;81.58;95779.53;10481449;28;2322;-79
2021/08/18 20:04:07;;;;;;;;;;;17.10;99.90;;;16.26;80.70;95780.69;10501038;28;2601;-82
2021/08/18 20:09:09;;;;;;;;;;;17.20;99.90;;;16.27;80.19;95769.50;10504976;28;2257;-81
2021/08/18 20:14:12;;;;;;;;;;;17.20;99.90;;;16.25;80.10;95774.44;10489556;28;2340;-81
2021/08/18 20:19:15;;;;;;;;;;;17.20;99.90;;;16.18;80.98;95766.75;10499009;28;2298;-81
2021/08/18 20:24:18;;;;;;;;;;;17.20;99.90;;;16.28;80.44;95773.03;10506313;28;2225;-81
2021/08/18 20:29:21;;;;;;;;;;;17.20;99.90;;;16.31;80.58;95772.41;10501371;28;2208;-81
2021/08/18 20:34:23;;;;;;;;;;;17.20;99.90;;;16.39;80.16;95774.38;10504264;28;2388;-80
2021/08/18 20:39:26;;;;;;;;;;;17.30;99.90;;;16.40;80.96;95778.69;10505250;28;2284;-83
2021/08/18 20:44:29;;;;;;;;;;;17.30;99.90;;;16.37;82.02;95773.91;10501086;28;2213;-83
2021/08/18 20:49:31;;;;;;;;;;;17.30;99.90;;;16.34;81.30;95777.22;10503209;28;2391;-81
2021/08/18 20:54:34;;;;;;;;;;;17.30;99.90;;;16.33;81.18;95775.63;10501173;28;2344;-81
2021/08/18 20:59:37;;;;;;;;;;;17.30;99.90;;;16.23;79.87;95781.31;10509250;28;2292;-82
2021/08/18 21:04:40;;;;;;;;;;;17.20;99.90;;;16.12;81.00;95781.56;10507189;28;2331;-82
2021/08/18 21:09:43;;;;;;;;;;;17.20;99.90;;;16.11;81.87;95779.16;10521877;28;2082;-82
2021/08/18 21:14:46;;;;;;;;;;;17.10;99.90;;;16.19;81.69;95776.50;10503529;28;2303;-82
2021/08/18 21:19:48;;;;;;;;;;;17.10;99.90;;;16.20;82.82;95788.94;10512142;28;1733;-80
2021/08/18 21:24:52;;;;;;;;;;;17.10;99.90;;;16.27;83.38;95776.84;10512007;28;2394;-81
2021/08/18 21:29:55;;;;;;;;;;;17.20;99.90;;;16.36;83.58;95785.84;10511985;28;2216;-83
2021/08/18 21:34:58;;;;;;;;;;;17.20;99.90;;;16.49;83.54;95780.34;10498309;28;2301;-81
2021/08/18 21:40:00;;;;;;;;;;;17.30;99.90;;;16.58;82.12;95774.97;10510783;28;2337;-82
2021/08/18 21:45:03;;;;;;;;;;;17.40;99.90;;;16.49;82.10;95779.56;10530093;28;2256;-82
2021/08/18 21:50:06;;;;;;;;;;;17.50;99.90;;;16.38;82.30;95772.78;10524435;28;2375;-81
2021/08/18 21:55:08;;;;;;;;;;;17.40;99.90;;;16.40;82.27;95771.34;10519681;28;2265;-81
2021/08/18 22:00:11;;;;;;;;;;;17.40;99.90;;;16.47;82.20;95776.31;10493001;28;2355;-84
2021/08/18 22:05:15;;;;;;;;;;;17.40;99.90;;;16.59;81.48;95763.00;10527694;28;2729;-83
2021/08/18 22:10:18;;;;;;;;;;;17.40;99.90;;;16.58;80.51;95772.25;10532433;28;2424;-81
2021/08/18 22:15:21;;;;;;;;;;;17.50;99.90;;;16.55;80.29;95772.88;10533081;28;2291;-80
2021/08/18 22:20:24;;;;;;;;;;;17.50;99.90;;;16.37;80.86;95776.59;10504598;28;2114;-82
2021/08/18 22:25:27;;;;;;;;;;;17.40;99.90;;;16.23;81.52;95770.47;10494222;28;2181;-80
2021/08/18 22:30:30;;;;;;;;;;;17.30;99.90;;;16.10;83.54;95772.94;10511613;28;2341;-81
2021/08/18 22:35:32;;;;;;;;;;;17.20;99.90;;;16.08;83.56;95769.69;10484578;28;1956;-81
2021/08/18 22:40:36;;;;;;;;;;;17.10;99.90;;;16.11;83.98;95779.94;10472608;28;2280;-81
2021/08/18 22:45:39;;;;;;;;;;;17.10;99.90;;;16.21;82.12;95774.25;10504795;28;2216;-79
2021/08/18 22:50:41;;;;;;;;;;;17.10;99.90;;;16.23;82.66;95770.47;10509330;28;2036;-81
2021/08/18 22:55:44;;;;;;;;;;;17.10;99.90;;;16.19;82.85;95776.50;10493523;28;2341;-82
2021/08/18 23:00:47;;;;;;;;;;;17.20;99.90;;;16.23;81.93;95776.69;10521288;28;2351;-80
2021/08/18 23:05:50;;;;;;;;;;;17.20;99.90;;;16.20;81.65;95774.56;10492714;28;2205;-80